Time;durP1;ratioP1;P1;durP2;ratioP2;P2;SDS_P1;SDS_P2;PMS_P1;PMS_P2;Temp;Humidity;BMP_temperature;BMP_pressure;BME280_temperature;BME280_humidity;BME280_pressure;Samples;Min_cycle;Max_cycle;Signal;HPM_P1;HPM_P2
2023/02/22 00:02:25;;;;;;;31.08;10.40;;;;;;;7.99;100.00;100781.09;5159554;28;20026;-75
2023/02/22 00:04:56;;;;;;;29.13;10.68;;;;;;;8.00;100.00;100785.41;5159871;28;20030;-75
2023/02/22 00:07:27;;;;;;;22.00;8.23;;;;;;;7.63;100.00;100783.63;5160068;28;20048;-74
2023/02/22 00:09:59;;;;;;;26.33;8.63;;;;;;;7.35;100.00;100785.06;5160340;28;20301;-74
2023/02/22 00:12:30;;;;;;;22.98;9.13;;;;;;;7.37;100.00;100778.94;5147351;28;20475;-75
2023/02/22 00:15:00;;;;;;;27.33;10.43;;;;;;;7.34;100.00;100784.19;5146304;28;20034;-75
2023/02/22 00:17:30;;;;;;;28.98;10.68;;;;;;;7.53;100.00;100775.16;5160149;28;20022;-75
2023/02/22 00:20:05;;;;;;;28.48;10.43;;;;;;;7.63;100.00;100776.69;5160116;28;20056;-76
2023/02/22 00:22:35;;;;;;;27.50;10.05;;;;;;;7.47;100.00;100783.09;5156498;28;20033;-75
2023/02/22 00:25:06;;;;;;;28.55;10.60;;;;;;;7.43;100.00;100778.84;5159854;28;20447;-74
2023/02/22 00:27:36;;;;;;;30.52;10.70;;;;;;;7.59;100.00;100775.03;5160034;28;20026;-73
2023/02/22 00:30:08;;;;;;;24.17;9.93;;;;;;;7.59;100.00;100777.63;5159082;28;20291;-73
2023/02/22 00:32:38;;;;;;;28.13;10.10;;;;;;;7.60;100.00;100774.16;5156908;28;20057;-73
2023/02/22 00:35:08;;;;;;;27.58;9.95;;;;;;;7.73;100.00;100772.16;5158028;28;20022;-74
2023/02/22 00:37:40;;;;;;;28.25;10.55;;;;;;;7.69;100.00;100770.50;5156608;28;20031;-76
2023/02/22 00:40:14;;;;;;;25.65;9.57;;;;;;;7.69;100.00;100771.34;5158282;28;20061;-74
2023/02/22 00:42:48;;;;;;;28.58;10.70;;;;;;;7.53;100.00;100775.16;5141931;28;20054;-73
2023/02/22 00:47:58;;;;;;;27.95;10.90;;;;;;;7.56;100.00;100771.63;5182677;23;20058;-72
2023/02/22 00:50:30;;;;;;;28.25;11.25;;;;;;;7.50;100.00;100763.97;5148132;28;20117;-73
2023/02/22 00:53:02;;;;;;;27.70;10.80;;;;;;;7.53;100.00;100759.53;5161234;28;20029;-73
2023/02/22 00:55:35;;;;;;;29.33;10.27;;;;;;;7.63;100.00;100758.47;5165370;28;20026;-70
2023/02/22 00:58:06;;;;;;;27.42;10.43;;;;;;;7.68;100.00;100755.78;5153246;28;20053;-70
2023/02/22 01:00:40;;;;;;;32.20;11.93;;;;;;;7.58;100.00;100759.47;5149124;28;20038;-71
2023/02/22 01:03:15;;;;;;;27.50;10.23;;;;;;;7.54;100.00;100753.44;5150508;28;20022;-69
2023/02/22 01:05:46;;;;;;;26.83;10.20;;;;;;;7.56;100.00;100759.47;5151053;28;20034;-73
2023/02/22 01:08:16;;;;;;;27.77;10.70;;;;;;;7.52;100.00;100760.44;5158798;28;20045;-70
2023/02/22 01:10:47;;;;;;;33.13;11.63;;;;;;;7.59;100.00;100754.22;5153086;28;20045;-69
2023/02/22 01:13:18;;;;;;;31.35;10.90;;;;;;;7.49;100.00;100746.66;5145262;28;20281;-70
2023/02/22 01:15:49;;;;;;;26.95;10.13;;;;;;;7.77;100.00;100746.03;5142937;28;20034;-70
2023/02/22 01:18:20;;;;;;;27.95;9.93;;;;;;;7.86;100.00;100750.19;5142146;28;20043;-70
2023/02/22 01:20:51;;;;;;;25.83;10.90;;;;;;;7.84;100.00;100745.00;5141277;28;20485;-70
2023/02/22 01:23:21;;;;;;;36.65;11.68;;;;;;;7.94;100.00;100746.53;5148959;28;20038;-70
2023/02/22 01:25:51;;;;;;;28.42;10.60;;;;;;;8.01;100.00;100745.50;5151692;28;20269;-71
2023/02/22 01:28:21;;;;;;;30.40;11.40;;;;;;;7.94;100.00;100745.66;5151044;28;20034;-71
2023/02/22 01:30:54;;;;;;;28.42;10.30;;;;;;;7.88;100.00;100741.44;5139644;28;20522;-72
2023/02/22 01:33:25;;;;;;;27.65;10.15;;;;;;;7.94;100.00;100741.31;5148689;28;20041;-71
2023/02/22 01:35:55;;;;;;;32.45;11.52;;;;;;;7.84;100.00;100737.19;5142435;28;20034;-71
2023/02/22 01:38:26;;;;;;;30.48;10.80;;;;;;;7.65;100.00;100735.03;5149089;28;20041;-73
2023/02/22 01:40:56;;;;;;;28.45;10.20;;;;;;;7.51;100.00;100737.91;5153807;28;20030;-72
2023/02/22 01:43:29;;;;;;;27.10;10.27;;;;;;;7.58;100.00;100734.31;5157485;28;20030;-71
2023/02/22 01:46:21;;;;;;;24.85;10.23;;;;;;;7.66;100.00;100724.59;5161445;28;20030;-72
2023/02/22 01:49:05;;;;;;;23.27;9.93;;;;;;;7.54;100.00;100722.25;5147188;28;20058;-72
2023/02/22 01:51:39;;;;;;;26.83;9.95;;;;;;;7.45;100.00;100719.84;5153047;28;20102;-71
2023/02/22 01:54:15;;;;;;;29.27;10.43;;;;;;;7.43;100.00;100725.97;5158292;28;20058;-71
2023/02/22 01:57:12;;;;;;;33.35;10.35;;;;;;;7.38;100.00;100713.06;5149913;28;20027;-71
2023/02/22 01:59:46;;;;;;;27.95;9.55;;;;;;;7.36;100.00;100719.19;5155671;28;20045;-72
2023/02/22 02:02:20;;;;;;;25.30;9.30;;;;;;;7.37;100.00;100706.13;5120618;28;20046;-72
2023/02/22 02:04:53;;;;;;;24.02;9.77;;;;;;;7.36;100.00;100714.81;5150945;28;20110;-71
2023/02/22 02:07:23;;;;;;;28.73;10.95;;;;;;;7.31;100.00;100716.69;5149476;28;20018;-71
2023/02/22 02:10:00;;;;;;;24.17;9.02;;;;;;;7.43;100.00;100710.38;5144806;28;20477;-72
2023/02/22 02:12:34;;;;;;;27.38;10.23;;;;;;;7.16;100.00;100710.94;5148461;28;20037;-71
2023/02/22 02:15:22;;;;;;;28.50;9.68;;;;;;;7.07;100.00;100703.31;5158293;28;20117;-72
2023/02/22 02:17:55;;;;;;;27.25;9.65;;;;;;;6.94;100.00;100703.59;5158099;28;20072;-71
2023/02/22 02:20:55;;;;;;;28.20;9.80;;;;;;;6.93;100.00;100696.69;5165097;28;20030;-71
2023/02/22 02:23:39;;;;;;;31.42;10.48;;;;;;;6.93;100.00;100701.88;5156149;28;20518;-72
2023/02/22 02:26:46;;;;;;;29.13;10.30;;;;;;;6.81;100.00;100696.88;5157254;28;20026;-71
2023/02/22 02:29:27;;;;;;;26.58;9.90;;;;;;;6.74;100.00;100695.31;5126801;28;20040;-72
2023/02/22 02:32:11;;;;;;;25.17;9.43;;;;;;;6.68;100.00;100690.19;5154313;28;20539;-71
2023/02/22 02:34:49;;;;;;;33.65;11.27;;;;;;;6.72;100.00;100694.44;5151135;28;20038;-72
2023/02/22 02:37:53;;;;;;;29.67;11.27;;;;;;;6.75;100.00;100694.41;5153713;28;20035;-73
2023/02/22 02:40:46;;;;;;;30.80;10.75;;;;;;;6.65;100.00;100691.13;5159849;28;20503;-71
2023/02/22 02:43:26;;;;;;;31.77;10.65;;;;;;;6.57;100.00;100692.16;5161167;28;20084;-71
2023/02/22 02:46:07;;;;;;;27.90;9.70;;;;;;;6.50;100.00;100691.41;5166080;28;20119;-72
2023/02/22 02:48:44;;;;;;;28.15;10.35;;;;;;;6.55;100.00;100693.91;5151358;28;20093;-71
2023/02/22 02:51:16;;;;;;;29.00;9.55;;;;;;;6.52;100.00;100683.56;5153723;28;20084;-71
2023/02/22 02:53:50;;;;;;;30.15;9.80;;;;;;;6.45;100.00;100687.16;5155497;28;20026;-71
2023/02/22 02:56:22;;;;;;;28.65;10.10;;;;;;;6.41;100.00;100688.94;5149712;28;20457;-71
2023/02/22 02:58:53;;;;;;;32.50;10.55;;;;;;;6.31;100.00;100689.13;5156647;28;20054;-71
2023/02/22 03:01:50;;;;;;;19.80;6.90;;;;;;;5.99;100.00;100689.66;5149586;28;20113;-71
2023/02/22 03:04:47;;;;;;;20.58;7.63;;;;;;;6.07;100.00;100689.53;5143450;28;20022;-72
2023/02/22 03:07:37;;;;;;;30.48;10.25;;;;;;;6.15;100.00;100687.66;5142380;28;20085;-71
2023/02/22 03:10:36;;;;;;;20.60;7.57;;;;;;;6.06;100.00;100683.47;5150854;28;20134;-71
2023/02/22 03:13:39;;;;;;;18.90;7.00;;;;;;;6.21;100.00;100679.78;5151064;28;20033;-71
2023/02/22 03:16:40;;;;;;;19.58;6.80;;;;;;;6.17;100.00;100686.78;5155293;28;20084;-71
2023/02/22 03:19:34;;;;;;;8.23;4.25;;;;;;;6.18;100.00;100683.28;5156121;28;20117;-70
2023/02/22 03:22:17;;;;;;;10.38;3.97;;;;;;;6.15;100.00;100677.28;5122326;28;20038;-71
2023/02/22 03:25:00;;;;;;;12.02;3.95;;;;;;;6.15;100.00;100672.97;5155944;28;20504;-71
2023/02/22 03:27:42;;;;;;;9.98;3.95;;;;;;;6.01;100.00;100679.25;5153693;28;20420;-71
2023/02/22 03:30:22;;;;;;;7.55;3.38;;;;;;;5.83;100.00;100680.38;5150458;28;20058;-71
2023/02/22 03:32:59;;;;;;;7.78;3.45;;;;;;;5.99;100.00;100675.81;5152342;28;20034;-70
2023/02/22 03:35:34;;;;;;;6.80;3.13;;;;;;;6.02;100.00;100675.75;5163257;28;20065;-71
2023/02/22 03:38:08;;;;;;;9.55;4.00;;;;;;;5.79;100.00;100681.31;5156206;28;20029;-70
2023/02/22 03:40:43;;;;;;;10.88;3.75;;;;;;;5.63;100.00;100684.09;5155658;28;20030;-71
2023/02/22 03:43:16;;;;;;;;;;;;;;;5.48;100.00;100676.53;5140962;28;20072;-71
2023/02/22 03:45:49;;;;;;;12.95;3.53;;;;;;;5.42;100.00;100679.22;5159732;28;19945;-73
2023/02/22 03:48:36;;;;;;;13.55;5.10;;;;;;;5.69;100.00;100674.50;5157333;28;20476;-71
2023/02/22 03:51:06;;;;;;;16.17;5.60;;;;;;;5.77;100.00;100675.25;5153643;28;20034;-71
2023/02/22 03:53:37;;;;;;;13.10;5.50;;;;;;;5.66;100.00;100678.88;5149464;28;20025;-71
2023/02/22 03:56:12;;;;;;;10.63;4.68;;;;;;;5.49;100.00;100673.06;5153122;28;20109;-71
2023/02/22 03:58:44;;;;;;;;;;;;;;;5.27;100.00;100670.78;5147416;28;20034;-71
2023/02/22 04:01:14;;;;;;;9.32;4.20;;;;;;;5.35;100.00;100676.72;5144560;28;19918;-71
2023/02/22 04:03:45;;;;;;;11.68;4.28;;;;;;;5.22;100.00;100669.97;5144568;28;20030;-71
2023/02/22 04:06:15;;;;;;;12.80;4.68;;;;;;;5.16;100.00;100668.31;5151466;28;20356;-71
2023/02/22 04:08:45;;;;;;;17.27;6.70;;;;;;;5.14;100.00;100671.81;5146140;28;20053;-71
2023/02/22 04:11:16;;;;;;;22.92;7.25;;;;;;;5.25;100.00;100678.59;5149519;28;20042;-72
2023/02/22 04:13:46;;;;;;;23.17;7.90;;;;;;;5.27;100.00;100674.22;5145304;28;20042;-71
2023/02/22 04:16:16;;;;;;;23.23;7.93;;;;;;;5.29;100.00;100674.22;5134334;28;20046;-71
2023/02/22 04:18:47;;;;;;;23.48;7.90;;;;;;;5.47;100.00;100667.06;5143302;28;20085;-70
2023/02/22 04:21:17;;;;;;;24.75;8.43;;;;;;;5.40;100.00;100673.22;5135847;28;20054;-71
2023/02/22 04:23:47;;;;;;;25.45;9.27;;;;;;;5.39;100.00;100669.75;5150078;28;20511;-72
2023/02/22 04:26:18;;;;;;;28.52;8.48;;;;;;;5.30;100.00;100670.75;5153688;28;20480;-70
2023/02/22 04:28:48;;;;;;;21.42;8.10;;;;;;;5.37;100.00;100669.78;5150860;28;20035;-71
2023/02/22 04:31:18;;;;;;;26.58;7.85;;;;;;;5.35;100.00;100664.63;5156233;28;20030;-70
2023/02/22 04:33:49;;;;;;;18.58;6.30;;;;;;;5.22;100.00;100665.66;5160219;28;20022;-71
2023/02/22 04:36:20;;;;;;;21.23;7.13;;;;;;;5.13;100.00;100663.19;5164211;28;20034;-71
2023/02/22 04:38:50;;;;;;;16.58;6.53;;;;;;;5.21;100.00;100665.69;5164919;28;20072;-71
2023/02/22 04:41:21;;;;;;;19.27;7.63;;;;;;;5.06;100.00;100660.69;5158919;28;20492;-71
2023/02/22 04:43:51;;;;;;;22.27;8.00;;;;;;;4.99;100.00;100661.66;5154895;28;20034;-71
2023/02/22 04:46:22;;;;;;;24.80;8.07;;;;;;;5.04;100.00;100657.25;5145920;28;20042;-72
2023/02/22 04:48:53;;;;;;;24.38;8.35;;;;;;;4.95;100.00;100657.38;5144772;28;20049;-71
2023/02/22 04:51:24;;;;;;;25.92;8.85;;;;;;;5.00;100.00;100659.00;5150899;28;20105;-70
2023/02/22 04:53:55;;;;;;;29.60;9.30;;;;;;;5.02;100.00;100661.59;5145544;28;20113;-72
2023/02/22 04:56:25;;;;;;;29.25;9.43;;;;;;;5.10;100.00;100659.75;5144133;28;20030;-71
2023/02/22 04:58:55;;;;;;;29.45;9.38;;;;;;;5.06;100.00;100661.56;5149640;28;20037;-72
2023/02/22 05:01:30;;;;;;;33.85;9.50;;;;;;;5.17;100.00;100651.91;5147438;28;20113;-70
2023/02/22 05:04:02;;;;;;;35.15;10.20;;;;;;;5.07;100.00;100645.13;5164018;28;20092;-71
2023/02/22 05:06:33;;;;;;;26.20;8.48;;;;;;;5.19;100.00;100647.56;5164030;28;20092;-72
2023/02/22 05:09:03;;;;;;;26.50;9.18;;;;;;;5.18;100.00;100643.25;5147729;28;20042;-71
2023/02/22 05:11:33;;;;;;;29.38;10.25;;;;;;;5.14;100.00;100646.75;5144104;28;20114;-71
2023/02/22 05:14:04;;;;;;;33.30;10.40;;;;;;;5.12;100.00;100645.94;5146287;28;20026;-71
2023/02/22 05:16:34;;;;;;;35.25;10.63;;;;;;;5.19;100.00;100644.97;5148392;28;20023;-72
2023/02/22 05:19:05;;;;;;;33.72;10.60;;;;;;;5.26;100.00;100644.03;5146980;28;20031;-72
2023/02/22 05:21:35;;;;;;;35.80;9.93;;;;;;;5.15;100.00;100648.47;5150787;28;20050;-72
2023/02/22 05:24:06;;;;;;;27.30;9.50;;;;;;;5.11;100.00;100640.78;5163977;28;20026;-72
2023/02/22 05:26:36;;;;;;;30.27;8.77;;;;;;;5.01;100.00;100652.13;5163964;28;20022;-72
2023/02/22 05:29:06;;;;;;;30.85;10.13;;;;;;;4.92;100.00;100650.50;5147466;28;20034;-72
2023/02/22 05:31:37;;;;;;;30.63;9.93;;;;;;;4.92;100.00;100647.91;5161494;28;20037;-72
2023/02/22 05:34:07;;;;;;;26.60;9.32;;;;;;;4.87;100.00;100649.69;5164161;28;20116;-71
2023/02/22 05:36:37;;;;;;;30.55;9.90;;;;;;;4.89;100.00;100642.78;5154851;28;20027;-72
2023/02/22 05:39:08;;;;;;;27.48;9.18;;;;;;;4.99;100.00;100633.16;5144189;28;20022;-72
2023/02/22 05:41:38;;;;;;;40.53;12.60;;;;;;;4.87;100.00;100641.94;5163020;28;20023;-72
2023/02/22 05:44:08;;;;;;;41.85;13.32;;;;;;;4.81;100.00;100639.41;5159617;28;20460;-71
2023/02/22 05:46:39;;;;;;;26.27;10.00;;;;;;;4.80;100.00;100640.28;5159683;28;20022;-72
2023/02/22 05:49:09;;;;;;;33.00;10.40;;;;;;;4.74;100.00;100645.53;5159200;28;20030;-72
2023/02/22 05:51:39;;;;;;;29.25;9.90;;;;;;;4.81;100.00;100638.56;5155433;28;20106;-71
2023/02/22 05:54:09;;;;;;;32.10;9.20;;;;;;;4.79;100.00;100635.13;5151132;28;20039;-71
2023/02/22 05:56:40;;;;;;;39.42;10.70;;;;;;;4.74;100.00;100634.31;5143207;28;20019;-71
2023/02/22 05:59:10;;;;;;;28.80;9.63;;;;;;;4.77;100.00;100629.97;5144376;28;20048;-71
2023/02/22 06:01:41;;;;;;;27.83;9.85;;;;;;;4.89;100.00;100636.72;5156437;28;20476;-72
2023/02/22 06:04:11;;;;;;;30.08;10.02;;;;;;;4.85;100.00;100638.50;5132440;28;20098;-73
2023/02/22 06:06:41;;;;;;;26.85;9.35;;;;;;;4.87;100.00;100641.94;5149588;28;20431;-73
2023/02/22 06:09:13;;;;;;;32.17;9.45;;;;;;;5.08;100.00;100633.03;5150568;28;20515;-71
2023/02/22 06:11:43;;;;;;;31.05;9.45;;;;;;;4.99;100.00;100646.94;5148641;28;20062;-71
2023/02/22 06:14:13;;;;;;;25.92;7.85;;;;;;;5.12;100.00;100639.91;5154890;28;20504;-71
2023/02/22 06:16:43;;;;;;;19.67;6.40;;;;;;;5.17;100.00;100636.34;5151110;28;20027;-71
2023/02/22 06:19:14;;;;;;;17.20;6.25;;;;;;;4.93;100.00;100639.25;5147124;28;20657;-71
2023/02/22 06:21:55;;;;;;;20.00;7.22;;;;;;;4.91;100.00;100630.66;5149496;28;20112;-73
2023/02/22 06:24:25;;;;;;;22.15;6.82;;;;;;;5.02;100.00;100623.63;5145178;28;20041;-72
2023/02/22 06:27:00;;;;;;;18.40;6.90;;;;;;;5.19;100.00;100631.16;5151125;28;20023;-72
2023/02/22 06:29:31;;;;;;;21.45;7.18;;;;;;;5.08;100.00;100633.03;5146592;28;20043;-72
2023/02/22 06:32:02;;;;;;;20.27;6.75;;;;;;;5.13;100.00;100626.91;5150652;28;20463;-71
2023/02/22 06:34:32;;;;;;;21.05;6.90;;;;;;;5.46;100.00;100623.88;5151537;28;20105;-72
2023/02/22 06:37:02;;;;;;;21.98;7.10;;;;;;;5.46;100.00;100616.97;5151717;28;20538;-72
2023/02/22 06:39:32;;;;;;;25.80;7.28;;;;;;;5.52;100.00;100623.78;5133733;28;20034;-71
2023/02/22 06:42:03;;;;;;;19.55;6.75;;;;;;;5.58;100.00;100623.72;5149639;28;20026;-72
2023/02/22 06:44:33;;;;;;;18.60;6.47;;;;;;;5.70;100.00;100615.72;5138279;28;20026;-72
2023/02/22 06:47:04;;;;;;;22.80;6.57;;;;;;;5.70;100.00;100620.91;5151188;28;20023;-73
2023/02/22 06:49:34;;;;;;;17.75;6.65;;;;;;;5.90;100.00;100621.50;5151113;28;20085;-71
2023/02/22 06:52:05;;;;;;;16.83;5.50;;;;;;;6.04;100.00;100616.94;5141616;28;20030;-72
2023/02/22 06:54:38;;;;;;;16.95;5.85;;;;;;;6.15;100.00;100625.41;5132963;28;20033;-73
2023/02/22 06:59:41;;;;;;;18.25;5.82;;;;;;;6.17;100.00;100611.53;5140944;28;20128;-79
2023/02/22 07:02:12;;;;;;;18.60;6.15;;;;;;;6.46;100.00;100609.25;5154027;28;20058;-79
2023/02/22 07:04:43;;;;;;;16.85;5.63;;;;;;;6.69;100.00;100608.81;5141076;28;20488;-80
2023/02/22 07:07:14;;;;;;;11.15;4.45;;;;;;;6.71;100.00;100596.66;5140133;28;20039;-78
2023/02/22 07:09:46;;;;;;;12.40;4.95;;;;;;;6.83;100.00;100601.63;5135449;28;20042;-80
2023/02/22 07:12:16;;;;;;;13.73;5.15;;;;;;;6.88;100.00;100612.75;5123486;28;20025;-80
2023/02/22 07:14:47;;;;;;;17.73;6.38;;;;;;;7.16;100.00;100608.72;5139992;28;20392;-79
2023/02/22 07:17:17;;;;;;;17.60;6.72;;;;;;;7.31;100.00;100612.69;5127689;28;20489;-80
2023/02/22 07:19:47;;;;;;;17.48;6.03;;;;;;;7.26;100.00;100618.88;5133916;28;20027;-78
2023/02/22 07:22:17;;;;;;;18.63;6.63;;;;;;;7.08;100.00;100608.03;5098530;29;20287;-79
2023/02/22 07:24:48;;;;;;;15.68;5.82;;;;;;;7.22;100.00;100612.88;5116604;28;20102;-80
2023/02/22 07:27:18;;;;;;;18.05;7.22;;;;;;;7.16;100.00;100616.50;5127316;28;20057;-80
2023/02/22 07:29:48;;;;;;;15.48;6.45;;;;;;;7.47;100.00;100608.00;5136480;28;20453;-79
2023/02/22 07:32:18;;;;;;;17.05;5.95;;;;;;;7.65;100.00;100611.06;5141653;28;20291;-80
2023/02/22 07:34:49;;;;;;;17.73;6.28;;;;;;;7.62;100.00;100612.84;5119518;28;20510;-80
2023/02/22 07:37:20;;;;;;;19.95;6.82;;;;;;;7.78;100.00;100615.09;5127515;28;20103;-79
2023/02/22 07:39:50;;;;;;;17.80;7.13;;;;;;;7.68;100.00;100605.78;5114361;29;20055;-79
2023/02/22 07:42:20;;;;;;;17.73;7.47;;;;;;;7.59;100.00;100613.81;5122353;28;20121;-79
2023/02/22 07:44:50;;;;;;;22.90;8.68;;;;;;;7.66;100.00;100610.16;5137838;28;20034;-78
2023/02/22 07:47:21;;;;;;;23.23;8.93;;;;;;;7.70;100.00;100598.78;5094072;28;20465;-78
2023/02/22 07:49:51;;;;;;;20.52;7.90;;;;;;;8.37;100.00;100595.41;5125060;28;20031;-78
2023/02/22 07:52:22;;;;;;;17.25;7.25;;;;;;;8.28;100.00;100606.03;5124524;29;20037;-77
2023/02/22 07:54:52;;;;;;;19.90;7.30;;;;;;;8.35;100.00;100600.63;5102450;29;20027;-79
2023/02/22 07:57:22;;;;;;;16.52;7.63;;;;;;;9.47;100.00;100599.13;5123192;28;20050;-79
2023/02/22 07:59:53;;;;;;;16.13;6.97;;;;;;;9.77;100.00;100591.19;5131116;28;20059;-78
2023/02/22 08:02:25;;;;;;;18.80;7.45;;;;;;;10.51;100.00;100589.56;5118819;28;20042;-77
2023/02/22 08:04:55;;;;;;;18.17;8.18;;;;;;;10.15;100.00;100592.59;5103757;29;20559;-78
2023/02/22 08:07:25;;;;;;;17.98;7.43;;;;;;;10.03;100.00;100590.38;5129367;28;20074;-76
2023/02/22 08:09:56;;;;;;;16.02;6.68;;;;;;;10.50;100.00;100589.63;5108197;29;20541;-77
2023/02/22 08:12:26;;;;;;;19.10;7.85;;;;;;;10.58;100.00;100590.19;5120401;28;20034;-79
2023/02/22 08:14:56;;;;;;;13.13;6.40;;;;;;;11.47;100.00;100586.78;5133488;28;20390;-78
2023/02/22 08:17:26;;;;;;;12.32;5.80;;;;;;;12.17;99.31;100584.84;5122855;28;20042;-78
2023/02/22 08:19:57;;;;;;;13.70;6.68;;;;;;;12.39;96.92;100585.63;5111650;29;20046;-78
2023/02/22 08:22:27;;;;;;;12.45;5.32;;;;;;;12.37;95.06;100584.84;5120003;29;20574;-78
2023/02/22 08:24:58;;;;;;;12.15;6.25;;;;;;;12.57;94.22;100585.69;5112608;29;20114;-78
2023/02/22 08:27:29;;;;;;;12.85;5.80;;;;;;;13.37;93.41;100583.75;5123764;28;20027;-79
2023/02/22 08:29:59;;;;;;;14.70;6.47;;;;;;;13.28;92.49;100584.22;5129818;28;20043;-78
2023/02/22 08:32:30;;;;;;;16.00;6.57;;;;;;;13.73;88.95;100578.56;5135918;28;20027;-77
2023/02/22 08:35:04;;;;;;;14.32;6.07;;;;;;;13.71;87.92;100585.66;5113921;28;20046;-77
2023/02/22 08:37:34;;;;;;;11.85;5.88;;;;;;;14.09;87.64;100571.50;5124366;28;20022;-78
2023/02/22 08:40:05;;;;;;;13.18;6.75;;;;;;;14.32;85.41;100579.09;5111629;28;20034;-78
2023/02/22 08:42:35;;;;;;;15.35;6.20;;;;;;;14.38;85.67;100576.16;5131521;28;20489;-77
2023/02/22 08:45:06;;;;;;;12.70;6.18;;;;;;;14.46;86.44;100574.00;5134503;28;20022;-77
2023/02/22 08:47:36;;;;;;;11.60;5.97;;;;;;;14.62;85.48;100575.75;5131307;28;20034;-77
2023/02/22 08:50:09;;;;;;;11.93;5.57;;;;;;;14.78;84.98;100566.13;5124734;28;20030;-77
2023/02/22 08:52:39;;;;;;;12.10;5.55;;;;;;;14.78;85.53;100567.91;5126186;28;20563;-79
2023/02/22 08:55:09;;;;;;;11.10;5.63;;;;;;;14.64;85.00;100570.41;5107050;28;20122;-79
2023/02/22 08:57:40;;;;;;;12.23;5.55;;;;;;;15.06;86.58;100566.34;5103032;28;20027;-77
2023/02/22 09:00:11;;;;;;;10.50;5.20;;;;;;;15.52;82.57;100555.88;5124165;28;20093;-77
2023/02/22 09:02:41;;;;;;;10.02;5.07;;;;;;;15.87;81.91;100551.25;5110861;28;20059;-77
2023/02/22 09:05:11;;;;;;;11.57;5.47;;;;;;;15.96;82.24;100553.34;5112773;28;20027;-77
2023/02/22 09:07:43;;;;;;;11.50;5.13;;;;;;;16.03;82.08;100552.91;5124480;28;20097;-77
2023/02/22 09:10:16;;;;;;;9.77;4.65;;;;;;;15.32;80.94;100556.13;5109371;28;20032;-77
2023/02/22 09:12:47;;;;;;;8.45;4.60;;;;;;;15.21;83.88;100552.38;5129843;28;20039;-78
2023/02/22 09:15:17;;;;;;;12.52;5.35;;;;;;;14.44;85.85;100552.19;5118264;28;20390;-79
2023/02/22 09:17:48;;;;;;;11.25;5.05;;;;;;;13.77;88.73;100559.09;5107724;29;20585;-78
2023/02/22 09:20:20;;;;;;;9.38;4.85;;;;;;;12.79;92.12;100562.84;5105693;28;20552;-78
2023/02/22 09:22:51;;;;;;;13.10;4.75;;;;;;;12.84;91.39;100563.47;5128085;28;20050;-78
2023/02/22 09:25:22;;;;;;;9.88;4.90;;;;;;;12.97;93.42;100551.56;5117241;28;20035;-78
2023/02/22 09:27:52;;;;;;;10.23;4.63;;;;;;;12.69;94.42;100551.06;5107102;29;20027;-79
2023/02/22 09:30:31;;;;;;;9.75;5.05;;;;;;;12.84;94.83;100550.38;5112891;28;20607;-76
2023/02/22 09:33:10;;;;;;;10.30;4.95;;;;;;;13.14;97.15;100547.25;5131798;28;20031;-77
2023/02/22 09:35:45;;;;;;;10.43;4.15;;;;;;;13.10;95.03;100536.97;5110534;29;20106;-78
2023/02/22 09:38:18;;;;;;;10.32;4.75;;;;;;;13.07;93.09;100532.69;5108453;29;20028;-78
2023/02/22 09:40:53;;;;;;;10.60;4.97;;;;;;;12.94;93.20;100546.44;5116072;28;20589;-77
2023/02/22 09:43:34;;;;;;;14.73;5.15;;;;;;;12.93;94.80;100540.34;5113592;28;20042;-77
2023/02/22 09:46:25;;;;;;;11.02;4.80;;;;;;;12.87;93.79;100531.91;5120232;28;20034;-78
2023/02/22 09:49:04;;;;;;;11.90;5.15;;;;;;;12.85;95.00;100535.50;5109911;29;20031;-78
2023/02/22 09:51:48;;;;;;;16.73;6.47;;;;;;;12.75;95.57;100529.81;5113634;28;20031;-76
2023/02/22 09:54:22;;;;;;;14.27;5.75;;;;;;;12.93;97.17;100527.22;5115688;28;20027;-77
2023/02/22 09:56:57;;;;;;;11.65;5.47;;;;;;;12.64;95.92;100528.59;5109183;29;20050;-78
2023/02/22 09:59:32;;;;;;;13.30;6.30;;;;;;;12.43;98.40;100530.38;5099327;29;20408;-77
2023/02/22 10:02:25;;;;;;;16.30;6.43;;;;;;;11.86;100.00;100538.13;5128925;28;20400;-77
2023/02/22 10:05:26;;;;;;;14.60;6.57;;;;;;;11.91;100.00;100520.44;5113209;28;20281;-77
2023/02/22 10:08:04;;;;;;;13.80;6.43;;;;;;;12.09;100.00;100522.28;5106141;29;20083;-77
2023/02/22 10:10:38;;;;;;;13.18;6.25;;;;;;;12.34;100.00;100522.06;5114921;28;20477;-77
2023/02/22 10:13:54;;;;;;;13.30;5.40;;;;;;;12.32;97.17;100522.13;5109467;28;20045;-78
2023/02/22 10:17:09;;;;;;;10.77;5.55;;;;;;;12.69;98.63;100516.13;5116174;28;20579;-77
2023/02/22 10:20:15;;;;;;;12.90;5.60;;;;;;;13.04;98.63;100508.41;5094561;28;20054;-77
2023/02/22 10:22:57;;;;;;;12.52;5.72;;;;;;;13.10;95.80;100506.31;5049113;29;20132;-77
2023/02/22 10:25:33;;;;;;;11.38;5.47;;;;;;;13.13;96.52;100500.06;5101237;29;20582;-77
2023/02/22 10:28:23;;;;;;;14.77;6.05;;;;;;;12.98;97.40;100503.41;5107343;28;20039;-78
2023/02/22 10:30:57;;;;;;;14.93;5.53;;;;;;;12.97;98.96;100503.50;5124841;28;20035;-77
2023/02/22 10:33:37;;;;;;;11.97;5.60;;;;;;;12.95;97.24;100494.84;5127157;28;20578;-78
2023/02/22 10:36:20;;;;;;;15.10;6.25;;;;;;;12.70;100.00;100489.84;5115090;28;20039;-77
2023/02/22 10:38:55;;;;;;;13.45;6.55;;;;;;;12.90;100.00;100488.00;5136309;28;20085;-77
2023/02/22 10:41:31;;;;;;;13.40;6.07;;;;;;;12.40;100.00;100491.22;5096386;29;20024;-76
2023/02/22 10:44:02;;;;;;;15.93;6.93;;;;;;;12.20;100.00;100496.47;5130140;28;20114;-77
2023/02/22 10:46:33;;;;;;;13.98;6.03;;;;;;;12.67;99.76;100489.97;5123949;28;20464;-80
2023/02/22 10:49:07;;;;;;;13.65;6.15;;;;;;;12.77;99.45;100496.50;5122000;28;20765;-80
2023/02/22 10:51:38;;;;;;;13.38;5.70;;;;;;;12.69;99.60;100493.41;5112328;28;20035;-80
2023/02/22 10:54:14;;;;;;;9.98;4.25;;;;;;;12.84;100.00;100486.59;5114463;28;20027;-79
2023/02/22 10:56:49;;;;;;;10.60;4.43;;;;;;;12.49;100.00;100490.78;5104136;29;20027;-79
2023/02/22 10:59:26;;;;;;;10.75;4.13;;;;;;;12.91;100.00;100479.19;5117965;28;20121;-79
2023/02/22 11:01:56;;;;;;;9.52;3.95;;;;;;;12.91;100.00;100483.59;5135037;28;20767;-80
2023/02/22 11:04:26;;;;;;;8.18;3.80;;;;;;;13.09;100.00;100482.78;5122388;28;20094;-80
2023/02/22 11:06:59;;;;;;;10.45;4.20;;;;;;;13.08;100.00;100481.91;5125223;28;20023;-80
2023/02/22 11:09:30;;;;;;;9.73;4.07;;;;;;;12.99;99.85;100476.25;5117985;28;20683;-77
2023/02/22 11:12:16;;;;;;;14.38;4.63;;;;;;;12.49;100.00;100472.44;5118040;28;20069;-79
2023/02/22 11:14:47;;;;;;;10.45;4.20;;;;;;;12.48;100.00;100473.38;5136212;28;20188;-77
2023/02/22 11:17:26;;;;;;;9.45;3.83;;;;;;;12.54;100.00;100473.09;5124672;28;20120;-77
2023/02/22 11:19:58;;;;;;;10.20;4.32;;;;;;;12.50;100.00;100475.94;5127162;28;20035;-77
2023/02/22 11:22:39;;;;;;;9.80;3.63;;;;;;;12.64;100.00;100477.00;5111792;29;20036;-79
2023/02/22 11:25:18;;;;;;;9.52;3.92;;;;;;;12.95;100.00;100464.22;5114696;29;20031;-80
2023/02/22 11:27:50;;;;;;;9.32;3.83;;;;;;;13.17;100.00;100465.75;5130291;28;20493;-80
2023/02/22 11:30:28;;;;;;;13.05;4.25;;;;;;;13.15;100.00;100462.34;5136261;28;20031;-80
2023/02/22 11:33:05;;;;;;;9.85;4.22;;;;;;;13.23;98.93;100459.38;5136979;28;20102;-79
2023/02/22 11:35:48;;;;;;;13.90;4.75;;;;;;;12.86;100.00;100456.75;5119567;28;20030;-79
2023/02/22 11:38:23;;;;;;;15.10;5.38;;;;;;;12.76;100.00;100457.22;5136701;28;20035;-79
2023/02/22 11:41:16;;;;;;;12.15;5.25;;;;;;;12.82;100.00;100452.53;5101786;29;20028;-79
2023/02/22 11:43:49;;;;;;;13.30;5.50;;;;;;;12.69;100.00;100448.81;5122617;28;20062;-79
2023/02/22 11:46:25;;;;;;;19.80;8.10;;;;;;;12.71;100.00;100452.22;5104234;28;20024;-80
2023/02/22 11:49:03;;;;;;;16.65;8.15;;;;;;;13.07;100.00;100437.41;5134681;28;20031;-77
2023/02/22 11:51:44;;;;;;;15.23;7.60;;;;;;;13.10;100.00;100438.09;5108037;29;20061;-77
2023/02/22 11:54:36;;;;;;;19.27;8.02;;;;;;;12.89;100.00;100433.00;5111313;29;20031;-78